Saint Petersburg, FL (33706)

9:10 PM EDT on August 27, 2016 (GMT -0400)
Saint Pete Beach | | Change Station

Elev 9 ft 27.74 °N, 82.75 °W | Updated 30 seconds ago

Rain
Rain
78.9 °F
Feels Like 83 °F
N
0.7
Wind Variable Wind from NW
Gusts 3.1 mph

Today
High -- | Low -- °F
--% Chance of Precip.
Yesterday
High -- | Low -- °F
Precip. -- in
Pressure 29.94 in
Visibility 10.0 miles
Clouds Clear
Heat Index 83 °F
Dew Point 79 °F
Humidity 99%
Rainfall 0.48 in
Snow Depth Not available.
7:07 AM 7:56 PM
Waning Crescent, 20% visible
METAR KSPG 280053Z AUTO 10008KT 10SM CLR 27/24 A2993 RMK AO2 RAB25E35 SLP136 P0000 T02720244
Pressure 29.94 in
Visibility 10.0 miles
Clouds Clear
Heat Index 83 °F
Dew Point 79 °F
Humidity 99%
Rainfall 0.48 in
Snow Depth Not available.
7:07 AM 7:56 PM
Waning Crescent, 20% visible
METAR KSPG 280053Z AUTO 10008KT 10SM CLR 27/24 A2993 RMK AO2 RAB25E35 SLP136 P0000 T02720244

10-Day Weather Forecast

Almanac

Astronomy

Aug. 27, 2016 Rise Set
Actual Time
Civil Twilight
Nautical Twilight
Astronomical Twilight
Moon
Length of Visible Light
Length of Day
Tomorrow will be .
, % of the Moon is Illuminated

Today's Extremes

State Highs State Lows

Community

WunderPhotos

Upload Photos

1,935,479 photos uploaded!

WunderBlog® & News

Nearby

Air Quality

  Air Quality AQ Index Pollutant
Not available.

Snow Depth

Station Depth Elevation

Earthquake Activity

City Distance Mag. Time & Date
Minimum magnitude displayed is 2.5.

Coastal Water Temperatures

Place Temperature

Stations

Nearby Weather Stations

Station Location Temp. Windchill Dew Point Humidity Wind Precip. Elev Updated Type
                   

Watches & Warnings

There are currently no watches in effect.